Time;durP1;ratioP1;P1;durP2;ratioP2;P2;SDS_P1;SDS_P2;PMS_P1;PMS_P2;Temp;Humidity;BMP_temperature;BMP_pressure;BME280_temperature;BME280_humidity;BME280_pressure;Samples;Min_cycle;Max_cycle;Signal;HPM_P1;HPM_P2
2024/01/20 00:02:03;;;;;;;7.75;2.45;;;1.50;90.20;;;;;;5071432;28;20403;-55
2024/01/20 00:04:30;;;;;;;9.57;2.63;;;1.50;90.30;;;;;;5071567;28;20103;-57
2024/01/20 00:06:56;;;;;;;12.45;3.20;;;1.50;90.30;;;;;;5071395;28;20035;-55
2024/01/20 00:09:23;;;;;;;11.73;2.80;;;1.50;90.20;;;;;;5071195;28;20028;-55
2024/01/20 00:11:49;;;;;;;9.13;3.15;;;1.50;90.40;;;;;;5076295;28;20070;-58
2024/01/20 00:14:18;;;;;;;8.38;2.85;;;1.50;90.30;;;;;;5082272;28;20095;-58
2024/01/20 00:16:45;;;;;;;7.10;2.42;;;1.60;90.30;;;;;;5072189;28;20032;-55
2024/01/20 00:19:11;;;;;;;9.13;2.45;;;1.50;90.40;;;;;;5069975;28;20446;-57
2024/01/20 00:21:39;;;;;;;12.50;3.55;;;1.60;90.30;;;;;;5070480;28;20085;-58
2024/01/20 00:24:09;;;;;;;14.25;3.47;;;1.60;90.30;;;;;;5070199;28;20017;-58
2024/01/20 00:26:34;;;;;;;11.13;3.05;;;1.60;90.30;;;;;;5072193;28;20507;-58
2024/01/20 00:29:01;;;;;;;11.48;2.92;;;1.60;90.30;;;;;;5070258;28;20052;-58
2024/01/20 00:31:28;;;;;;;9.57;3.28;;;1.60;90.40;;;;;;5070043;28;20029;-55
2024/01/20 00:33:55;;;;;;;8.40;3.05;;;1.60;90.40;;;;;;5070391;28;20449;-55
2024/01/20 00:36:21;;;;;;;10.15;2.97;;;1.60;90.40;;;;;;5073552;28;20032;-54
2024/01/20 00:38:48;;;;;;;7.82;2.90;;;1.60;90.40;;;;;;5071031;28;20401;-58
2024/01/20 00:41:15;;;;;;;9.38;2.55;;;1.70;90.30;;;;;;5074182;28;20115;-56
2024/01/20 00:43:42;;;;;;;10.43;2.75;;;1.60;90.20;;;;;;5071000;28;20032;-59
2024/01/20 00:46:09;;;;;;;11.40;3.40;;;1.70;90.20;;;;;;5053336;28;20032;-55
2024/01/20 00:48:36;;;;;;;8.75;2.95;;;1.60;90.10;;;;;;5074859;28;20048;-58
2024/01/20 00:51:07;;;;;;;12.55;4.03;;;1.60;90.20;;;;;;5079785;28;20028;-59
2024/01/20 00:53:34;;;;;;;8.45;3.78;;;1.60;90.10;;;;;;5078764;28;20357;-59
2024/01/20 00:56:00;;;;;;;12.90;3.40;;;1.70;90.20;;;;;;5082228;28;20064;-59
2024/01/20 00:58:27;;;;;;;8.05;3.85;;;1.70;90.20;;;;;;5089055;28;20063;-56
2024/01/20 01:00:52;;;;;;;8.32;3.17;;;1.70;90.20;;;;;;5080635;28;20024;-57
2024/01/20 01:03:21;;;;;;;7.40;3.10;;;1.70;90.10;;;;;;5073641;28;20089;-57
2024/01/20 01:05:50;;;;;;;8.05;3.22;;;1.60;90.20;;;;;;5074140;28;20033;-59
2024/01/20 01:08:19;;;;;;;10.05;3.53;;;1.60;90.00;;;;;;5073790;28;20033;-54
2024/01/20 01:10:46;;;;;;;11.90;4.30;;;1.60;90.00;;;;;;5073911;28;20323;-55
2024/01/20 01:13:13;;;;;;;8.80;4.10;;;1.60;90.00;;;;;;5073439;28;20048;-57
2024/01/20 01:15:40;;;;;;;7.85;3.97;;;1.60;90.00;;;;;;5073659;28;20335;-56
2024/01/20 01:18:06;;;;;;;11.65;3.90;;;1.60;90.10;;;;;;5056754;28;20090;-58
2024/01/20 01:20:33;;;;;;;9.88;3.60;;;1.50;90.20;;;;;;5073518;28;20036;-58
2024/01/20 01:23:02;;;;;;;15.90;4.60;;;1.50;90.20;;;;;;5073933;28;20119;-55
2024/01/20 01:25:28;;;;;;;8.90;2.90;;;1.50;90.10;;;;;;5073410;28;20343;-57
2024/01/20 01:27:53;;;;;;;8.98;5.55;;;1.50;90.10;;;;;;5075581;28;20090;-59
2024/01/20 01:30:19;;;;;;;9.65;5.30;;;1.50;90.10;;;;;;5055197;28;20024;-56
2024/01/20 01:32:48;;;;;;;7.82;3.55;;;1.40;90.30;;;;;;5074060;28;20036;-58
2024/01/20 01:35:14;;;;;;;7.20;3.75;;;1.40;90.30;;;;;;5073558;28;20028;-59
2024/01/20 01:37:40;;;;;;;10.45;4.10;;;1.40;90.20;;;;;;5073227;28;20397;-56
2024/01/20 01:40:06;;;;;;;11.82;4.15;;;1.40;90.30;;;;;;5073401;28;20021;-57
2024/01/20 01:42:33;;;;;;;10.38;5.30;;;1.40;90.40;;;;;;5073224;28;20020;-59
2024/01/20 01:45:00;;;;;;;10.75;4.25;;;1.40;90.40;;;;;;5075003;28;20031;-57
2024/01/20 01:47:27;;;;;;;10.88;5.13;;;1.40;90.40;;;;;;5074902;28;20115;-59
2024/01/20 01:49:53;;;;;;;11.73;4.65;;;1.40;90.40;;;;;;5073368;28;20150;-57
2024/01/20 01:52:21;;;;;;;10.35;5.30;;;1.40;90.40;;;;;;5073081;28;20064;-54
2024/01/20 01:54:48;;;;;;;10.25;5.70;;;1.50;90.60;;;;;;5072814;28;20117;-59
2024/01/20 01:57:16;;;;;;;10.18;5.85;;;1.50;90.60;;;;;;5072707;28;20366;-59
2024/01/20 01:59:43;;;;;;;13.90;6.70;;;1.40;90.50;;;;;;5072764;28;20099;-58
2024/01/20 02:02:10;;;;;;;11.38;5.68;;;1.50;90.60;;;;;;5073207;28;20290;-57
2024/01/20 02:04:38;;;;;;;13.10;6.68;;;1.50;90.50;;;;;;5072570;28;20024;-57
2024/01/20 02:07:05;;;;;;;13.32;6.63;;;1.40;90.50;;;;;;5072353;28;20066;-58
2024/01/20 02:09:33;;;;;;;16.30;6.43;;;1.40;90.50;;;;;;5073642;28;20498;-58
2024/01/20 02:12:01;;;;;;;10.27;6.45;;;1.40;90.70;;;;;;5073441;28;20032;-58
2024/01/20 02:14:34;;;;;;;12.93;6.22;;;1.40;90.60;;;;;;5073099;28;20021;-58
2024/01/20 02:17:01;;;;;;;20.73;9.32;;;1.40;90.80;;;;;;5075618;28;20043;-58
2024/01/20 02:19:27;;;;;;;11.70;6.60;;;1.40;90.80;;;;;;5084863;28;20496;-59
2024/01/20 02:21:54;;;;;;;12.50;7.25;;;1.50;90.80;;;;;;5073255;28;20036;-58
2024/01/20 02:24:21;;;;;;;12.93;7.22;;;1.50;90.90;;;;;;5072772;28;20472;-58
2024/01/20 02:26:51;;;;;;;11.18;7.18;;;1.50;90.80;;;;;;5073194;28;20021;-58
2024/01/20 02:29:18;;;;;;;14.35;7.10;;;1.60;90.70;;;;;;5072639;28;20035;-58
2024/01/20 02:31:45;;;;;;;15.15;8.95;;;1.50;90.80;;;;;;5072553;28;20028;-58
2024/01/20 02:34:12;;;;;;;13.00;7.63;;;1.60;90.80;;;;;;5072843;28;20139;-56
2024/01/20 02:36:44;;;;;;;13.50;7.45;;;1.60;90.80;;;;;;5055115;28;20070;-59
2024/01/20 02:39:13;;;;;;;14.65;8.10;;;1.60;90.80;;;;;;5072739;28;20062;-55
2024/01/20 02:41:42;;;;;;;13.77;7.65;;;1.60;90.80;;;;;;5072455;28;20036;-56
2024/01/20 02:44:09;;;;;;;15.98;8.95;;;1.60;90.90;;;;;;5076967;28;20033;-57
2024/01/20 02:46:35;;;;;;;13.63;7.30;;;1.50;90.90;;;;;;5071844;28;20016;-58
2024/01/20 02:49:01;;;;;;;12.60;7.25;;;1.60;91.00;;;;;;5072287;28;20032;-58
2024/01/20 02:51:28;;;;;;;15.48;7.95;;;1.50;90.90;;;;;;5072160;28;20028;-57
2024/01/20 02:53:55;;;;;;;13.90;7.63;;;1.50;91.00;;;;;;5072545;28;20111;-56
2024/01/20 02:56:22;;;;;;;18.60;7.78;;;1.50;91.00;;;;;;5076933;28;20020;-58
2024/01/20 02:58:48;;;;;;;14.50;6.35;;;1.50;90.90;;;;;;5072380;28;20090;-57
2024/01/20 03:01:15;;;;;;;13.73;6.90;;;1.50;90.90;;;;;;5073959;28;20030;-58
2024/01/20 03:03:45;;;;;;;16.08;10.20;;;1.50;90.90;;;;;;5075690;28;20020;-57
2024/01/20 03:06:12;;;;;;;15.30;7.90;;;1.50;90.80;;;;;;5071578;28;20086;-57
2024/01/20 03:08:38;;;;;;;12.48;7.20;;;1.40;90.70;;;;;;5053862;28;20518;-57
2024/01/20 03:11:05;;;;;;;10.55;7.80;;;1.40;90.80;;;;;;5071432;28;20037;-57
2024/01/20 03:13:32;;;;;;;11.32;7.30;;;1.40;90.80;;;;;;5071401;28;20517;-58
2024/01/20 03:15:58;;;;;;;12.73;8.70;;;1.40;90.80;;;;;;5071387;28;20029;-58
2024/01/20 03:18:24;;;;;;;17.60;10.50;;;1.40;90.80;;;;;;5070489;28;20033;-58
2024/01/20 03:20:51;;;;;;;13.85;7.65;;;1.30;90.90;;;;;;5071890;28;20029;-54
2024/01/20 03:23:18;;;;;;;14.25;7.95;;;1.20;90.80;;;;;;5037107;28;20456;-57
2024/01/20 03:25:45;;;;;;;16.98;9.07;;;1.20;90.90;;;;;;5071564;28;20437;-59
2024/01/20 03:28:10;;;;;;;12.50;8.55;;;1.10;90.90;;;;;;5061978;28;20055;-54
2024/01/20 03:30:37;;;;;;;14.30;8.77;;;1.10;90.90;;;;;;5071814;28;20060;-55
2024/01/20 03:33:03;;;;;;;14.07;9.57;;;1.10;90.90;;;;;;5071631;28;20032;-58
2024/01/20 03:35:29;;;;;;;12.98;8.13;;;1.10;91.20;;;;;;5071973;28;20328;-57
2024/01/20 03:37:55;;;;;;;14.05;8.50;;;1.10;91.10;;;;;;5071769;28;20033;-58
2024/01/20 03:40:21;;;;;;;10.65;7.93;;;1.10;91.30;;;;;;5071673;28;20096;-55
2024/01/20 03:42:47;;;;;;;13.30;9.63;;;1.10;91.30;;;;;;5053921;28;20017;-59
2024/01/20 03:45:13;;;;;;;14.52;9.20;;;1.10;91.20;;;;;;5071208;28;20045;-59
2024/01/20 03:47:41;;;;;;;13.20;9.23;;;1.10;91.20;;;;;;5070876;28;20777;-59
2024/01/20 03:50:09;;;;;;;17.67;9.02;;;1.10;91.20;;;;;;5070617;28;20028;-59
2024/01/20 03:52:36;;;;;;;14.75;9.63;;;1.10;91.30;;;;;;5071522;28;20024;-59
2024/01/20 03:55:04;;;;;;;18.85;10.63;;;1.10;91.20;;;;;;5071086;28;20048;-59
2024/01/20 03:57:31;;;;;;;13.52;9.98;;;1.10;91.20;;;;;;5070654;28;20029;-59
2024/01/20 03:59:56;;;;;;;18.17;9.45;;;1.10;91.20;;;;;;5071452;28;20174;-58
2024/01/20 04:02:27;;;;;;;15.70;10.52;;;1.00;91.20;;;;;;5071379;28;20103;-55
2024/01/20 04:04:54;;;;;;;12.60;9.30;;;1.00;91.00;;;;;;5071128;28;20555;-58
2024/01/20 04:07:20;;;;;;;11.80;9.55;;;0.90;91.10;;;;;;5060081;28;20043;-58
2024/01/20 04:09:47;;;;;;;20.00;10.32;;;0.90;91.10;;;;;;5071074;28;20099;-58
2024/01/20 04:12:14;;;;;;;11.90;9.25;;;0.90;91.10;;;;;;5070585;28;20035;-59
2024/01/20 04:14:43;;;;;;;20.67;11.68;;;0.90;91.20;;;;;;5070353;28;20178;-57
2024/01/20 04:17:13;;;;;;;15.38;10.23;;;0.90;91.20;;;;;;5070408;28;20033;-57
2024/01/20 04:19:40;;;;;;;17.88;11.20;;;0.90;91.20;;;;;;5070516;28;20045;-58
2024/01/20 04:22:07;;;;;;;13.90;10.40;;;0.80;91.20;;;;;;5070683;28;20024;-59
2024/01/20 04:24:34;;;;;;;16.88;10.18;;;0.80;91.20;;;;;;5071990;28;20032;-56
2024/01/20 04:27:05;;;;;;;16.08;11.27;;;0.80;91.30;;;;;;5081286;28;20107;-58
2024/01/20 04:29:32;;;;;;;16.25;12.13;;;0.70;91.10;;;;;;5072718;28;20028;-58
2024/01/20 04:31:59;;;;;;;16.35;11.85;;;0.70;91.30;;;;;;5074358;28;20452;-56
2024/01/20 04:34:27;;;;;;;18.35;11.88;;;0.70;91.40;;;;;;5075826;28;20040;-58
2024/01/20 04:36:54;;;;;;;17.73;13.60;;;0.70;91.40;;;;;;5074465;28;20103;-54
2024/01/20 04:39:21;;;;;;;14.75;12.15;;;0.70;91.40;;;;;;5074730;28;20032;-56
2024/01/20 04:41:48;;;;;;;17.17;12.18;;;0.80;91.50;;;;;;5074643;28;20035;-59
2024/01/20 04:44:14;;;;;;;19.42;12.95;;;0.80;91.50;;;;;;5074105;28;20064;-58
2024/01/20 04:46:43;;;;;;;16.17;12.93;;;0.80;91.50;;;;;;5073988;28;20082;-58
2024/01/20 04:49:09;;;;;;;20.67;14.63;;;0.70;91.50;;;;;;5056695;28;20044;-55
2024/01/20 04:51:36;;;;;;;19.73;13.25;;;0.80;91.50;;;;;;5074598;28;20032;-57
2024/01/20 04:54:03;;;;;;;19.02;12.18;;;0.80;91.50;;;;;;5074776;28;20039;-56
2024/01/20 04:56:30;;;;;;;20.23;13.15;;;0.80;91.40;;;;;;5074275;28;20049;-57
2024/01/20 04:58:57;;;;;;;15.05;13.23;;;0.80;91.50;;;;;;5074626;28;20123;-57
2024/01/20 05:01:25;;;;;;;18.58;13.82;;;0.80;91.50;;;;;;5074802;28;20147;-55
2024/01/20 05:03:53;;;;;;;24.20;15.33;;;0.80;91.60;;;;;;5074806;28;20319;-58
2024/01/20 05:06:18;;;;;;;17.38;13.25;;;0.70;91.40;;;;;;5074564;28;20275;-56
2024/01/20 05:08:44;;;;;;;19.65;13.88;;;0.80;91.50;;;;;;5074602;28;20032;-59
2024/01/20 05:11:12;;;;;;;20.15;15.10;;;0.70;91.30;;;;;;5073770;28;20031;-58
2024/01/20 05:13:38;;;;;;;23.85;14.60;;;0.70;91.40;;;;;;5073621;28;20468;-58
2024/01/20 05:16:05;;;;;;;27.00;15.02;;;0.70;91.30;;;;;;5055807;28;20206;-58
2024/01/20 05:18:32;;;;;;;24.70;16.63;;;0.60;91.20;;;;;;5073971;28;20108;-58
2024/01/20 05:20:59;;;;;;;19.45;15.02;;;0.70;91.40;;;;;;5056628;28;20024;-58
2024/01/20 05:23:26;;;;;;;19.20;15.82;;;0.60;91.40;;;;;;5074156;28;20024;-59
2024/01/20 05:25:53;;;;;;;22.58;15.73;;;0.60;91.40;;;;;;5076436;28;20024;-58
2024/01/20 05:28:19;;;;;;;20.85;15.98;;;0.60;91.40;;;;;;5076317;28;20055;-59
2024/01/20 05:30:49;;;;;;;20.50;16.52;;;0.50;91.30;;;;;;5081071;28;20480;-53
2024/01/20 05:33:15;;;;;;;24.17;18.67;;;0.60;91.30;;;;;;5086606;28;20024;-52
2024/01/20 05:35:42;;;;;;;23.02;16.88;;;0.60;91.40;;;;;;5074382;28;20098;-58
2024/01/20 05:38:12;;;;;;;26.52;18.13;;;0.60;91.40;;;;;;5072752;28;20040;-57
2024/01/20 05:40:39;;;;;;;23.13;19.13;;;0.60;91.50;;;;;;5072326;28;20020;-55
2024/01/20 05:43:04;;;;;;;23.67;17.42;;;0.50;91.30;;;;;;5073186;28;20020;-58
2024/01/20 05:45:32;;;;;;;24.65;18.95;;;0.50;91.30;;;;;;5081017;28;20036;-58
2024/01/20 05:47:59;;;;;;;27.75;21.02;;;0.50;91.30;;;;;;5082765;28;20524;-58
2024/01/20 05:50:26;;;;;;;25.23;19.38;;;0.50;91.40;;;;;;5080785;28;20020;-58
2024/01/20 05:52:52;;;;;;;27.55;19.30;;;0.50;91.40;;;;;;5077001;28;20032;-56
2024/01/20 05:55:19;;;;;;;23.55;20.10;;;0.50;91.40;;;;;;5076229;28;20418;-54
2024/01/20 05:57:46;;;;;;;22.50;19.15;;;0.50;91.50;;;;;;5057770;28;20444;-57
2024/01/20 06:00:14;;;;;;;25.55;19.42;;;0.50;91.40;;;;;;5079372;28;20020;-55
2024/01/20 06:02:40;;;;;;;26.10;20.48;;;0.50;91.40;;;;;;5083632;28;20027;-57
2024/01/20 06:05:07;;;;;;;28.25;19.27;;;0.50;91.40;;;;;;5091133;28;20271;-56
2024/01/20 06:07:34;;;;;;;25.25;18.00;;;0.50;91.40;;;;;;5089371;28;20069;-58
2024/01/20 06:10:04;;;;;;;24.73;19.38;;;0.50;91.30;;;;;;5065315;28;20032;-56
2024/01/20 06:12:31;;;;;;;;;;;0.50;91.30;;;;;;5091295;28;20109;-57
2024/01/20 06:14:59;;;;;;;23.17;19.30;;;0.50;91.20;;;;;;5082634;28;19913;-56
2024/01/20 06:17:26;;;;;;;26.02;20.08;;;0.50;91.20;;;;;;5090669;28;20521;-57
2024/01/20 06:19:53;;;;;;;27.65;20.73;;;0.50;91.20;;;;;;5090274;28;20058;-58
2024/01/20 06:22:20;;;;;;;30.20;21.15;;;0.50;91.00;;;;;;5087831;28;20105;-51
2024/01/20 06:24:47;;;;;;;29.48;20.17;;;0.50;91.00;;;;;;5090621;28;20057;-58
2024/01/20 06:27:14;;;;;;;27.77;20.60;;;0.50;90.90;;;;;;5088430;28;20020;-56
2024/01/20 06:29:44;;;;;;;23.90;19.17;;;0.50;91.00;;;;;;5087893;28;20024;-57
2024/01/20 06:32:10;;;;;;;25.80;20.05;;;0.50;91.00;;;;;;5089908;28;20032;-57
2024/01/20 06:34:36;;;;;;;28.60;20.13;;;0.50;90.80;;;;;;5089402;28;20073;-54
2024/01/20 06:37:06;;;;;;;26.75;18.65;;;0.50;90.80;;;;;;5088817;28;20114;-54
2024/01/20 06:39:33;;;;;;;22.42;17.65;;;0.50;90.80;;;;;;5091135;28;20031;-55
2024/01/20 06:42:00;;;;;;;26.08;19.90;;;0.50;90.80;;;;;;5088915;28;20034;-57
2024/01/20 06:44:26;;;;;;;25.65;18.23;;;0.50;90.80;;;;;;5085766;28;20024;-57
2024/01/20 06:46:53;;;;;;;34.50;20.30;;;0.50;90.70;;;;;;5074678;28;20036;-56
2024/01/20 06:49:18;;;;;;;23.88;18.05;;;0.50;90.60;;;;;;5056980;28;20115;-58
2024/01/20 06:51:45;;;;;;;29.20;19.77;;;0.50;90.60;;;;;;5074880;28;20103;-57
2024/01/20 06:54:12;;;;;;;24.80;17.73;;;0.50;90.60;;;;;;5074667;28;20024;-57
2024/01/20 06:56:39;;;;;;;26.13;17.15;;;0.50;90.50;;;;;;5073914;28;20111;-55
2024/01/20 06:59:09;;;;;;;29.05;19.92;;;0.50;90.50;;;;;;5073385;28;20032;-53
2024/01/20 07:01:36;;;;;;;24.88;19.02;;;0.50;90.60;;;;;;5073929;28;20032;-58
2024/01/20 07:04:05;;;;;;;23.00;18.38;;;0.50;90.60;;;;;;5085437;28;20035;-58
2024/01/20 07:06:31;;;;;;;28.92;18.95;;;0.50;90.60;;;;;;5084508;28;20110;-57
2024/01/20 07:09:05;;;;;;;25.30;18.63;;;0.50;90.50;;;;;;5085869;28;20135;-55
2024/01/20 07:11:36;;;;;;;31.50;18.80;;;0.50;90.50;;;;;;5084258;28;20057;-56
2024/01/20 07:14:04;;;;;;;30.60;19.38;;;0.50;90.50;;;;;;5085124;28;20036;-58
2024/01/20 07:16:31;;;;;;;28.60;19.00;;;0.50;90.40;;;;;;5081865;28;20036;-56
2024/01/20 07:18:57;;;;;;;31.48;18.33;;;0.50;90.50;;;;;;5085964;28;20393;-57
2024/01/20 07:21:22;;;;;;;25.73;18.00;;;0.50;90.40;;;;;;5083277;28;20085;-54
2024/01/20 07:23:49;;;;;;;26.50;18.80;;;0.50;90.50;;;;;;5083714;28;20094;-56
2024/01/20 07:26:15;;;;;;;25.60;19.38;;;0.50;90.40;;;;;;5079847;28;20077;-57
2024/01/20 07:28:42;;;;;;;29.05;17.42;;;0.50;90.30;;;;;;5084707;28;20353;-57
2024/01/20 07:31:09;;;;;;;28.15;18.75;;;0.50;90.30;;;;;;5077261;28;20033;-57
2024/01/20 07:33:36;;;;;;;27.52;19.48;;;0.50;90.30;;;;;;5071675;28;20176;-58
2024/01/20 07:36:03;;;;;;;29.33;19.50;;;0.50;90.40;;;;;;5053228;28;20024;-55
2024/01/20 07:38:30;;;;;;;29.98;18.63;;;0.50;90.40;;;;;;5070861;28;20074;-58
2024/01/20 07:40:59;;;;;;;31.35;19.98;;;0.50;90.30;;;;;;5053733;28;20048;-56
2024/01/20 07:43:26;;;;;;;24.45;17.23;;;0.50;90.30;;;;;;5071355;28;20025;-56
2024/01/20 07:45:54;;;;;;;30.02;19.95;;;0.50;90.20;;;;;;5071458;28;20541;-58
2024/01/20 07:48:21;;;;;;;27.23;19.00;;;0.40;90.00;;;;;;5071494;28;20052;-57
2024/01/20 07:50:51;;;;;;;26.48;17.70;;;0.40;90.20;;;;;;5071760;28;20104;-57
2024/01/20 07:53:18;;;;;;;25.27;17.30;;;0.50;90.20;;;;;;5071584;28;20093;-57
2024/01/20 07:55:44;;;;;;;30.75;19.48;;;0.50;90.10;;;;;;5085853;28;20028;-58
2024/01/20 07:58:11;;;;;;;31.10;18.25;;;0.50;89.90;;;;;;5063788;28;20032;-58
2024/01/20 08:00:40;;;;;;;25.63;18.27;;;0.50;89.90;;;;;;5076642;28;20024;-55
2024/01/20 08:03:10;;;;;;;31.70;19.17;;;0.50;89.90;;;;;;5072139;28;20044;-58
2024/01/20 08:05:36;;;;;;;30.58;20.42;;;0.50;89.90;;;;;;5082415;28;20104;-56
2024/01/20 08:08:03;;;;;;;32.83;19.27;;;0.40;89.90;;;;;;5077381;28;20040;-56
2024/01/20 08:10:30;;;;;;;30.27;18.08;;;0.40;90.00;;;;;;5078315;28;20673;-57
2024/01/20 08:12:57;;;;;;;35.45;20.25;;;0.40;89.90;;;;;;5081449;28;20024;-58
2024/01/20 08:15:25;;;;;;;31.00;18.55;;;0.40;89.80;;;;;;5064441;28;20287;-58
2024/01/20 08:17:55;;;;;;;35.10;20.30;;;0.40;89.80;;;;;;5080141;28;20025;-57
2024/01/20 08:20:22;;;;;;;31.33;18.33;;;0.50;89.80;;;;;;5067759;28;20103;-57
2024/01/20 08:22:47;;;;;;;24.90;16.83;;;0.50;89.70;;;;;;5079575;28;20024;-58
2024/01/20 08:25:15;;;;;;;28.70;18.77;;;0.50;89.60;;;;;;5077925;28;20031;-57
2024/01/20 08:27:42;;;;;;;28.77;17.50;;;0.50;89.50;;;;;;5078795;28;20070;-58
2024/01/20 08:30:10;;;;;;;34.75;19.58;;;0.60;89.40;;;;;;5084417;28;20502;-55
2024/01/20 08:32:39;;;;;;;35.72;19.70;;;0.50;89.50;;;;;;5079643;28;20461;-58
2024/01/20 08:35:09;;;;;;;29.67;18.35;;;0.50;89.20;;;;;;5079089;28;20353;-55
2024/01/20 08:37:40;;;;;;;28.77;18.15;;;0.60;89.30;;;;;;5084136;28;20131;-57
2024/01/20 08:40:06;;;;;;;30.77;18.77;;;0.60;89.20;;;;;;5088222;28;20111;-55
2024/01/20 08:42:33;;;;;;;31.48;17.73;;;0.60;89.10;;;;;;5081383;28;20033;-58
2024/01/20 08:45:01;;;;;;;30.15;16.90;;;0.70;89.10;;;;;;5083269;28;20436;-58
2024/01/20 08:47:28;;;;;;;27.70;18.23;;;0.70;89.10;;;;;;5060595;28;20354;-55
2024/01/20 08:49:53;;;;;;;28.95;18.38;;;0.70;89.10;;;;;;5076574;28;20107;-55
2024/01/20 08:52:19;;;;;;;30.40;16.77;;;0.80;88.90;;;;;;5076305;28;20532;-55
2024/01/20 08:54:46;;;;;;;29.45;17.02;;;0.80;88.90;;;;;;5082634;28;20090;-57
2024/01/20 08:57:15;;;;;;;26.08;16.75;;;0.80;88.80;;;;;;5065271;28;20078;-51
2024/01/20 08:59:42;;;;;;;33.22;19.35;;;0.90;88.60;;;;;;5087928;28;20021;-54
2024/01/20 09:02:07;;;;;;;29.70;17.67;;;0.90;88.60;;;;;;5087298;28;20025;-57
2024/01/20 09:04:34;;;;;;;29.17;18.58;;;0.90;88.50;;;;;;5080093;28;20522;-57
2024/01/20 09:07:01;;;;;;;26.67;17.30;;;1.00;88.60;;;;;;5083475;28;20071;-56
2024/01/20 09:09:29;;;;;;;26.67;16.73;;;1.10;88.40;;;;;;5083656;28;20123;-55
2024/01/20 09:11:57;;;;;;;26.70;16.77;;;1.20;88.30;;;;;;5089647;28;20016;-58
2024/01/20 09:14:22;;;;;;;29.23;18.13;;;1.20;88.20;;;;;;5089786;28;20085;-55
2024/01/20 09:16:51;;;;;;;29.13;16.77;;;1.20;88.20;;;;;;5082740;28;20029;-55
2024/01/20 09:19:20;;;;;;;28.40;15.73;;;1.20;88.20;;;;;;5075484;28;20036;-56
2024/01/20 09:21:47;;;;;;;27.15;16.92;;;1.20;88.20;;;;;;5078310;28;20111;-55
2024/01/20 09:24:16;;;;;;;26.42;16.58;;;1.30;88.10;;;;;;5072812;28;20027;-55
2024/01/20 09:26:42;;;;;;;29.95;16.23;;;1.30;88.10;;;;;;5081416;28;20028;-58
2024/01/20 09:29:12;;;;;;;26.00;16.75;;;1.40;88.00;;;;;;5065811;28;20040;-58
2024/01/20 09:31:38;;;;;;;25.35;16.30;;;1.40;87.80;;;;;;5055630;28;20373;-58
2024/01/20 09:34:06;;;;;;;26.55;16.92;;;1.50;87.60;;;;;;5072781;28;20446;-58
2024/01/20 09:36:32;;;;;;;29.80;17.77;;;1.60;87.40;;;;;;5073428;28;20459;-58
2024/01/20 09:38:59;;;;;;;33.08;16.33;;;1.60;87.20;;;;;;5069889;28;20039;-56
2024/01/20 09:41:26;;;;;;;25.55;14.32;;;1.70;87.30;;;;;;5066562;28;20031;-59
2024/01/20 09:43:54;;;;;;;27.50;15.07;;;1.80;87.20;;;;;;5062492;28;20032;-56
2024/01/20 09:46:21;;;;;;;30.80;16.02;;;1.80;87.00;;;;;;5078679;28;20348;-59
2024/01/20 09:48:54;;;;;;;26.73;15.85;;;1.80;86.90;;;;;;5083672;28;20052;-58
2024/01/20 09:51:24;;;;;;;27.55;17.05;;;1.90;86.80;;;;;;5072866;28;20036;-53
2024/01/20 09:53:59;;;;;;;28.02;17.05;;;1.90;86.80;;;;;;5075167;28;20514;-57
2024/01/20 09:56:27;;;;;;;25.58;17.08;;;1.80;86.70;;;;;;5083061;28;20074;-58
2024/01/20 09:59:02;;;;;;;30.55;16.95;;;1.70;86.70;;;;;;5074872;28;20066;-57
2024/01/20 10:01:30;;;;;;;24.10;15.85;;;1.80;86.70;;;;;;5074903;28;20337;-57
2024/01/20 10:04:05;;;;;;;25.35;16.42;;;1.80;86.80;;;;;;5078685;28;20029;-59
2024/01/20 10:06:32;;;;;;;26.42;16.50;;;1.80;86.80;;;;;;5083845;28;20047;-59
2024/01/20 10:08:59;;;;;;;32.55;15.95;;;1.90;86.70;;;;;;5075090;28;20146;-59
2024/01/20 10:11:26;;;;;;;24.02;15.10;;;1.90;86.80;;;;;;5072689;28;20090;-59
2024/01/20 10:13:57;;;;;;;24.67;16.05;;;1.90;86.80;;;;;;5072610;28;20039;-58
2024/01/20 10:16:24;;;;;;;28.65;16.10;;;1.90;86.60;;;;;;5072574;28;20592;-59
2024/01/20 10:18:57;;;;;;;25.92;16.50;;;1.90;86.50;;;;;;5055504;28;20105;-58
2024/01/20 10:21:24;;;;;;;23.17;15.73;;;2.00;86.50;;;;;;5072821;28;20017;-57
2024/01/20 10:23:52;;;;;;;27.25;15.77;;;1.90;86.60;;;;;;5073105;28;20043;-59
2024/01/20 10:26:19;;;;;;;29.02;16.33;;;1.90;86.60;;;;;;5055308;28;20020;-58
2024/01/20 10:28:46;;;;;;;22.17;16.55;;;1.90;86.50;;;;;;5072589;28;20052;-59
2024/01/20 10:31:13;;;;;;;25.23;16.80;;;1.90;86.70;;;;;;5073009;28;20111;-59
2024/01/20 10:33:42;;;;;;;28.40;18.65;;;1.90;86.80;;;;;;5072920;28;20123;-60
2024/01/20 10:36:10;;;;;;;34.75;19.02;;;1.90;87.00;;;;;;5072723;28;20116;-59
2024/01/20 10:38:40;;;;;;;25.30;16.08;;;1.90;87.10;;;;;;5072115;28;20089;-57
2024/01/20 10:41:08;;;;;;;26.08;18.00;;;2.00;87.20;;;;;;5073038;28;20021;-59
2024/01/20 10:43:41;;;;;;;26.90;17.50;;;2.00;87.10;;;;;;5055002;28;20103;-57
2024/01/20 10:46:27;;;;;;;29.48;18.42;;;2.10;87.20;;;;;;5055651;28;20021;-57
2024/01/20 10:48:59;;;;;;;31.70;18.15;;;2.20;87.00;;;;;;5072690;28;20086;-57
2024/01/20 10:51:31;;;;;;;28.63;17.67;;;2.20;87.10;;;;;;5072727;28;20028;-57
2024/01/20 10:54:01;;;;;;;27.77;18.45;;;2.20;87.10;;;;;;5072782;28;20051;-56
2024/01/20 10:56:29;;;;;;;32.13;19.50;;;2.30;87.10;;;;;;5071950;28;20102;-58
2024/01/20 10:59:15;;;;;;;32.90;19.70;;;2.40;86.80;;;;;;5070645;28;20052;-56
2024/01/20 11:01:45;;;;;;;29.55;17.55;;;2.40;86.80;;;;;;5078941;28;20102;-59
2024/01/20 11:04:22;;;;;;;34.13;19.00;;;2.40;86.90;;;;;;5053672;28;20028;-57
2024/01/20 11:06:50;;;;;;;29.20;17.95;;;2.40;86.90;;;;;;5053900;28;20024;-58
2024/01/20 11:09:23;;;;;;;29.73;19.02;;;2.40;87.00;;;;;;5056342;28;20517;-55
2024/01/20 11:12:09;;;;;;;30.75;19.10;;;2.40;86.90;;;;;;5070765;28;20039;-56
2024/01/20 11:14:36;;;;;;;24.58;16.85;;;2.40;87.10;;;;;;5070652;28;20027;-56
2024/01/20 11:17:13;;;;;;;28.70;18.25;;;2.40;86.80;;;;;;5071159;28;20020;-56
2024/01/20 11:19:39;;;;;;;25.08;17.65;;;2.40;87.00;;;;;;5071887;28;20028;-54
2024/01/20 11:22:33;;;;;;;31.02;18.17;;;2.40;87.20;;;;;;5071648;28;20027;-56
2024/01/20 11:25:07;;;;;;;27.77;18.48;;;2.40;87.40;;;;;;5075729;28;20028;-52
2024/01/20 11:27:58;;;;;;;27.27;18.02;;;2.40;87.40;;;;;;5071736;28;20021;-57
2024/01/20 11:30:35;;;;;;;27.80;17.15;;;2.40;87.70;;;;;;5081134;28;20046;-55
2024/01/20 11:33:02;;;;;;;34.05;18.08;;;2.40;87.50;;;;;;5080675;28;20032;-55
2024/01/20 11:35:28;;;;;;;31.23;19.33;;;2.40;87.50;;;;;;5071868;28;20036;-57
2024/01/20 11:37:57;;;;;;;30.48;18.73;;;2.40;87.60;;;;;;5056276;28;20026;-54
2024/01/20 11:40:26;;;;;;;27.50;17.35;;;2.40;87.50;;;;;;5080291;28;20028;-54
2024/01/20 11:42:52;;;;;;;31.63;19.17;;;2.40;87.60;;;;;;5054040;28;20490;-52
2024/01/20 11:45:18;;;;;;;27.77;18.25;;;2.40;87.50;;;;;;5071279;28;20056;-49
2024/01/20 11:47:48;;;;;;;31.38;17.63;;;2.50;87.80;;;;;;5071320;28;20048;-52
2024/01/20 11:50:15;;;;;;;25.80;17.88;;;2.50;87.70;;;;;;5071675;28;20032;-51
2024/01/20 11:52:43;;;;;;;27.88;18.17;;;2.50;87.70;;;;;;5053876;28;20361;-56
2024/01/20 11:55:10;;;;;;;25.73;17.20;;;2.50;87.60;;;;;;5071018;28;20062;-51
2024/01/20 11:57:35;;;;;;;30.40;18.85;;;2.50;87.40;;;;;;5077349;28;20056;-54
2024/01/20 12:00:04;;;;;;;26.35;16.70;;;2.40;87.60;;;;;;5079724;28;20048;-53
2024/01/20 12:02:29;;;;;;;28.15;17.38;;;2.50;87.50;;;;;;5071516;28;20074;-52
2024/01/20 12:04:55;;;;;;;31.67;18.58;;;2.50;87.80;;;;;;5077637;28;20024;-52
2024/01/20 12:07:27;;;;;;;31.10;18.27;;;2.50;87.70;;;;;;5082781;28;20395;-53
2024/01/20 12:09:54;;;;;;;29.33;17.90;;;2.50;87.40;;;;;;5071432;28;20028;-56
2024/01/20 12:12:22;;;;;;;33.42;16.92;;;2.50;87.70;;;;;;5072425;28;20523;-54
2024/01/20 12:14:49;;;;;;;31.80;18.23;;;2.50;87.70;;;;;;5052355;28;20029;-54
2024/01/20 12:17:21;;;;;;;23.30;16.95;;;2.50;87.70;;;;;;5070675;28;20027;-54
2024/01/20 12:19:48;;;;;;;27.75;16.67;;;2.50;87.70;;;;;;5070550;28;20453;-55
2024/01/20 12:22:15;;;;;;;28.20;18.92;;;2.60;87.70;;;;;;5070160;28;20111;-53
2024/01/20 12:24:49;;;;;;;31.52;18.35;;;2.60;87.80;;;;;;5070125;28;20016;-55
2024/01/20 12:27:16;;;;;;;30.05;18.83;;;2.50;87.70;;;;;;5072278;28;20032;-49
2024/01/20 12:29:44;;;;;;;29.15;17.75;;;2.60;87.70;;;;;;5069833;28;20032;-51
2024/01/20 12:32:11;;;;;;;25.48;16.70;;;2.60;87.70;;;;;;5070454;28;20052;-51
2024/01/20 12:34:38;;;;;;;29.85;18.73;;;2.50;87.70;;;;;;5072310;28;20025;-55
2024/01/20 12:37:04;;;;;;;29.52;17.85;;;2.50;87.60;;;;;;5070828;28;20040;-52
2024/01/20 12:39:30;;;;;;;26.45;17.65;;;2.50;87.70;;;;;;5071374;28;20027;-50
2024/01/20 12:41:57;;;;;;;27.40;17.90;;;2.50;87.70;;;;;;5074075;28;20052;-52
2024/01/20 12:44:24;;;;;;;32.60;18.50;;;2.40;87.80;;;;;;5075256;28;20360;-52